• Join FlightAware (Why Join?)
  • Login
  • US Flag 
03:49AM EDT


 

Airport Tracker/Info


-or-


 

Live Flight TrackerFlight Track Log ✈ RPA3392 ✈ 01-May-2013 ✈ KMSP - KDCA

Flight Track Log - Related Links

Times and Time Zones

All times are in EDT time to prevent confusion due to time zone crossing. See the RPA3392 flight status page for this flight to view local times or setup timezone preferences in your user account.

Time Position Orientation Groundspeed Altitude Reporting Facility
EDT Latitude Longitude Course Direction KTS MPH feet Rate Location/Type
05:53PM 44.9167 -93.2333 115° Southeast 159 183 2,700  Level Minneapolis TRACON
05:54PM 44.9478 -93.2331 360° North 173 199 3,800 2,160 Climbing Minneapolis Center
05:55PM 44.7556 -92.7614 111° Southeast  Level Estimated
05:55PM 45.0128 -93.2275 North 229 264 6,400  Level Minneapolis Center
05:56PM 44.7131 -92.6083 113° Southeast  Level Estimated
05:56PM 45.0322 -93.1392 73° East 276 318 9,400  Level Minneapolis Center
05:57PM 44.6704 -92.4555 125° Southeast  Level Estimated
05:57PM 44.9822 -93.0431 126° Southeast 303 349 11,500  Level Minneapolis Center
05:58PM 44.6274 -92.3030 117° Southeast  Level Estimated
05:58PM 44.9314 -92.9408 125° Southeast 315 362 14,700  Level Minneapolis Center
05:59PM 44.5878 -92.1632 115° Southeast  Level Estimated
05:59PM 44.8803 -92.8400 126° Southeast 316 364 15,400  Level Minneapolis Center
06:00PM 44.8153 -92.7122 126° Southeast 338 389 17,200 1,500 Climbing Minneapolis Center
06:01PM 44.7647 -92.5936 121° Southeast 351 404 18,500 1,560 Climbing Minneapolis Center
06:02PM 44.7206 -92.4581 115° Southeast 372 428 20,400 1,740 Climbing Minneapolis Center
06:03PM 44.6725 -92.3222 116° Southeast 384 442 22,100 1,680 Climbing Minneapolis Center
06:04PM 44.6250 -92.1844 116° Southeast 391 450 23,900 1,500 Climbing Minneapolis Center
06:05PM 44.5775 -92.0458 116° Southeast 394 453 25,300 1,380 Climbing Minneapolis Center
06:06PM 44.5269 -91.9039 117° Southeast 405 466 26,800 1,560 Climbing Minneapolis Center
06:08PM 44.4667 -91.7281 116° Southeast 416 479 28,500 1,380 Climbing Minneapolis Center
06:09PM 44.4147 -91.5822 116° Southeast 419 482 29,700 1,080 Climbing Minneapolis Center
06:10PM 44.3625 -91.4328 116° Southeast 425 489 30,800 1,080 Climbing Minneapolis Center
06:11PM 44.3086 -91.2817 116° Southeast 429 494 32,000 1,020 Climbing Minneapolis Center
06:12PM 44.2550 -91.1333 117° Southeast 430 495 33,000 480 Climbing Minneapolis Center
06:13PM 44.2019 -90.9842 116° Southeast 431 496 33,000  Level Minneapolis Center
06:14PM 44.1492 -90.8364 116° Southeast 430 495 33,000  Level Minneapolis Center
06:15PM 44.0844 -90.6606 117° Southeast 429 494 33,000  Level Minneapolis Center
06:16PM 44.0344 -90.5217 117° Southeast 429 494 33,000  Level Minneapolis Center
06:17PM 43.9806 -90.3733 117° Southeast 430 495 33,000  Level Minneapolis Center
06:18PM 43.9178 -90.1994 117° Southeast 431 496 33,000  Level Minneapolis Center
06:19PM 43.8594 -90.0522 119° Southeast 434 499 33,000  Level Minneapolis Center
06:20PM 43.8053 -89.9056 117° Southeast 430 495 33,000  Level Minneapolis Center
06:21PM 43.7506 -89.7594 117° Southeast 427 491 33,000  Level Minneapolis Center
06:22PM 43.6967 -89.6144 117° Southeast 426 490 33,000  Level Minneapolis Center
06:23PM 43.6411 -89.4694 118° Southeast 426 490 33,000  Level Minneapolis Center
06:24PM 43.6050 -89.3736 117° Southeast 425 489 33,000  Level Chicago Center
06:25PM 43.5503 -89.2322 118° Southeast 420 483 33,000  Level Chicago Center
06:26PM 43.4942 -89.0889 118° Southeast 423 487 33,000  Level Chicago Center
06:27PM 43.4394 -88.9472 118° Southeast 422 486 33,000  Level Chicago Center
06:28PM 43.3744 -88.7819 118° Southeast 424 488 33,000  Level Chicago Center
06:29PM 43.3197 -88.6428 118° Southeast 420 483 33,000  Level Chicago Center
06:30PM 43.2647 -88.5036 118° Southeast 422 486 33,000  Level Chicago Center
06:31PM 43.2094 -88.3631 118° Southeast 424 488 33,000  Level Chicago Center
06:32PM 43.1458 -88.1983 118° Southeast 421 484 33,000  Level Chicago Center
06:33PM 43.0894 -88.0572 119° Southeast 424 488 33,000  Level Chicago Center
06:34PM 43.0317 -87.9156 119° Southeast 427 491 33,000  Level Chicago Center
06:35PM 42.9744 -87.7731 119° Southeast 428 493 33,000  Level Chicago Center
06:36PM 42.9181 -87.6344 119° Southeast 420 483 33,000  Level Chicago Center
06:37PM 42.8519 -87.4706 119° Southeast 420 483 33,000  Level Chicago Center
06:38PM 42.8033 -87.3525 119° Southeast 418 481 33,000  Level Chicago Center
06:39PM 42.7353 -87.1881 119° Southeast 417 480 33,000  Level Chicago Center
06:40PM 42.6803 -87.0528 119° Southeast 411 473 33,000  Level Chicago Center
06:41PM 42.6236 -86.9189 120° Southeast 413 475 33,000  Level Chicago Center
06:42PM 42.5683 -86.7878 120° Southeast 411 473 33,000  Level Chicago Center
06:43PM 42.5119 -86.6508 119° Southeast 409 471 33,000  Level Chicago Center
06:44PM 42.4439 -86.4903 120° Southeast 413 475 33,000  Level Chicago Center
06:45PM 42.3872 -86.3558 120° Southeast 415 478 33,000  Level Chicago Center
06:46PM 42.3300 -86.2242 120° Southeast 411 473 33,000  Level Chicago Center
06:47PM 42.2697 -86.0825 120° Southeast 407 468 33,000  Level Chicago Center
06:48PM 42.2181 -85.9619 120° Southeast 405 466 33,000  Level Chicago Center
06:49PM 42.1519 -85.8072 120° Southeast 400 460 33,000  Level Chicago Center
06:50PM 42.0961 -85.6792 120° Southeast 399 459 33,000  Level Chicago Center
06:51PM 42.0397 -85.5506 121° Southeast 399 459 33,000  Level Chicago Center
06:53PM 41.9792 -85.4086 120° Southeast 397 457 33,000  Level Chicago Center
06:54PM 41.9222 -85.2750 120° Southeast 401 461 33,000  Level Cleveland Center
06:55PM 41.8669 -85.1483 120° Southeast 396 456 33,000  Level Cleveland Center
06:56PM 41.8097 -85.0158 120° Southeast 396 456 33,000  Level Cleveland Center
06:57PM 41.7539 -84.8925 121° Southeast 396 456 33,000  Level Cleveland Center
06:58PM 41.6958 -84.7661 122° Southeast 396 456 33,000  Level Cleveland Center
06:59PM 41.6381 -84.6400 121° Southeast 396 456 33,000  Level Cleveland Center
07:00PM 41.5839 -84.5144 120° Southeast 396 456 33,000  Level Cleveland Center
07:01PM 41.5128 -84.3622 122° Southeast 397 457 33,000  Level Chicago Center
07:02PM 41.4672 -84.2606 121° Southeast 396 456 33,000  Level Cleveland Center
07:03PM 41.4006 -84.1239 123° Southeast 396 456 33,000  Level Cleveland Center
07:04PM 41.3539 -84.0189 121° Southeast 402 463 33,000  Level Cleveland Center
07:05PM 41.2853 -83.8717 122° Southeast 402 463 33,000  Level Cleveland Center
07:06PM 41.2261 -83.7444 122° Southeast 402 463 33,000  Level Cleveland Center
07:07PM 41.1692 -83.6175 121° Southeast 402 463 33,000  Level Cleveland Center
07:08PM 41.1058 -83.4878 123° Southeast 402 463 33,000  Level Cleveland Center
07:09PM 41.0506 -83.3614 120° Southeast 402 463 33,000  Level Cleveland Center
07:10PM 40.9933 -83.2322 120° Southeast 402 463 33,000  Level Cleveland Center
07:11PM 40.9272 -83.1061 125° Southeast 407 468 33,000  Level Cleveland Center
07:12PM 40.8383 -82.9103 121° Southeast 409 471 33,000  Level Indianapolis Center
07:13PM 40.7661 -82.7597 122° Southeast 413 475 33,000  Level Indianapolis Center
07:14PM 40.7047 -82.6308 122° Southeast 411 473 33,000  Level Indianapolis Center
07:15PM 40.6431 -82.5042 123° Southeast 410 472 33,000  Level Indianapolis Center
07:16PM 40.5800 -82.3750 123° Southeast 416 479 33,000  Level Indianapolis Center
07:18PM 40.5181 -82.2456 122° Southeast 417 480 33,000  Level Indianapolis Center
07:19PM 40.4428 -82.0944 123° Southeast 429 494 33,000  Level Cleveland Center
07:20PM 40.3797 -81.9675 123° Southeast 423 487 33,000  Level Cleveland Center
07:21PM 40.3167 -81.8383 123° Southeast 423 487 33,000  Level Cleveland Center
07:22PM 40.2533 -81.7083 123° Southeast 420 483 33,000  Level Indianapolis Center
07:23PM 40.1881 -81.5669 121° Southeast 417 480 33,000  Level Cleveland Center
07:24PM 40.1244 -81.4411 123° Southeast 417 480 33,000  Level Cleveland Center
07:25PM 40.0606 -81.3128 123° Southeast 417 480 33,000  Level Cleveland Center
07:26PM 39.9967 -81.1875 124° Southeast 417 480 33,000  Level Cleveland Center
07:27PM 39.9306 -81.0569 123° Southeast 422 486 33,000  Level Cleveland Center
07:28PM 39.8664 -80.9292 123° Southeast 422 486 33,000  Level Cleveland Center
07:29PM 39.8022 -80.8019 123° Southeast 422 486 33,000  Level Cleveland Center
07:30PM 39.7356 -80.6722 124° Southeast 422 486 33,000  Level Cleveland Center
07:31PM 39.6711 -80.5453 123° Southeast 422 486 33,000  Level Cleveland Center
07:32PM 39.6042 -80.4161 124° Southeast 422 486 33,000  Level Cleveland Center
07:33PM 39.5394 -80.2897 124° Southeast 422 486 33,000  Level Cleveland Center
07:34PM 39.4358 -80.0900 124° Southeast 437 503 33,000 -180 Level Washington Center
07:35PM 39.3697 -79.9622 124° Southeast 437 503 32,600 -1,020 Descending Washington Center
07:36PM 39.3075 -79.8353 122° Southeast 430 495 31,000 -840 Descending Washington Center
07:37PM 39.2919 -79.6842 98° East 412 474 31,000 -60 Level Washington Center
07:38PM 39.2783 -79.5306 96° East 412 474 30,900 -600 Descending Washington Center
07:39PM 39.2644 -79.3769 97° East 433 498 29,900 -1,080 Descending Washington Center
07:40PM 39.2467 -79.2097 98° East 433 498 28,800 -1,200 Descending Washington Center
07:41PM 39.2325 -79.0589 97° East 427 491 27,500 -1,800 Descending Washington Center
07:42PM 39.2178 -78.9108 97° East 427 491 25,300 -2,220 Descending Washington Center
07:43PM 39.2050 -78.7711 97° East 421 484 23,200 -2,100 Descending Washington Center
07:44PM 39.1917 -78.6367 97° East 398 458 21,200 -1,980 Descending Washington Center
07:45PM 39.1783 -78.5022 97° East 379 436 19,200 -1,920 Descending Washington Center
07:46PM 39.1647 -78.3758 98° East 368 423 17,500 -1,620 Descending Washington Center
07:47PM 39.1383 -78.2542 106° East 356 410 16,100 -1,200 Descending Washington Center
07:48PM 39.1094 -78.1408 108° East 345 397 15,200 -960 Descending Washington Center
07:49PM 39.0786 -78.0222 108° East 339 390 14,200 -1,080 Descending Washington Center
07:50PM 39.0475 -77.9117 110° East 339 390 13,100 -1,320 Descending Washington Center
07:51PM 39.0222 -77.8039 107° East 322 371 11,600 -1,080 Descending Washington Center
07:52PM 38.9989 -77.7125 108° East 307 353 11,000 -720 Descending Washington Center
07:53PM 38.9675 -77.6047 111° Southeast 295 339 10,300 -1,080 Descending Washington Center
07:54PM 38.9500 -77.5333 107° East 282 325 9,300 -1,680 Descending Potomac TRACON
07:55PM 38.9500 -77.4333 90° East 287 330 7,600 -1,200 Descending Potomac TRACON
07:56PM 38.9500 -77.3500 90° East 247 284 6,900 -1,020 Descending Potomac TRACON
07:57PM 38.9333 -77.2667 104° East 227 261 5,600 -1,020 Descending Potomac TRACON
07:58PM 38.9500 -77.2000 72° East 196 226 4,900 -1,020 Descending Potomac TRACON
07:59PM 38.9500 -77.1500 90° East 181 208 3,600 -1,320 Descending Potomac TRACON